Terminal Aerodrome Forecast
Issued by NWS

Home | Current Version | Previous Version | Text Only | Print | Product List | Glossary On
Versions: 1 2 3 4 5 6 7 8 9 10 11 12 13 14 15 16 17 18 19 20 21 22 23 24 25 26 27 28 29 30
522
FTPQ31 PGUM 232341
TAFGRO
TAF
PGRO 232341Z 2400/2424 VRB06KT P6SM FEW020 SCT050
     FM240100 09008KT P6SM VCSH SCT018 SCT040=

USA.gov is the U.S. government's official web portal to all federal, state and local government web resources and services.